Time;durP1;ratioP1;P1;durP2;ratioP2;P2;SDS_P1;SDS_P2;PMS_P1;PMS_P2;Temp;Humidity;BMP_temperature;BMP_pressure;BME280_temperature;BME280_humidity;BME280_pressure;Samples;Min_cycle;Max_cycle;Signal;HPM_P1;HPM_P2
2024/03/26 05:02:01;;;;;;;2.83;2.00;;;2.00;97.30;;;;;;5357961;23;20547;-89
2024/03/26 05:04:26;;;;;;;1.20;1.10;;;2.00;97.30;;;;;;4957231;28;20521;-87
2024/03/26 05:06:52;;;;;;;4.20;2.10;;;2.00;97.30;;;;;;4957293;28;20221;-89
2024/03/26 05:09:17;;;;;;;1.67;1.57;;;2.00;97.30;;;;;;4956882;28;20317;-90
2024/03/26 05:11:44;;;;;;;1.30;1.20;;;2.00;97.30;;;;;;4945633;29;20211;-87
2024/03/26 05:14:09;;;;;;;1.97;1.87;;;2.00;97.30;;;;;;4938044;29;20191;-88
2024/03/26 05:16:35;;;;;;;1.20;1.10;;;2.10;97.30;;;;;;4938163;29;20454;-87
2024/03/26 05:19:03;;;;;;;1.87;1.73;;;2.10;97.30;;;;;;4937949;29;20183;-92
2024/03/26 05:21:31;;;;;;;2.37;2.17;;;2.10;97.30;;;;;;4946670;28;20696;-88
2024/03/26 05:23:56;;;;;;;1.33;1.23;;;2.20;97.30;;;;;;4937829;29;20488;-88
2024/03/26 05:26:21;;;;;;;1.67;1.53;;;2.20;97.30;;;;;;4937895;29;20462;-88
2024/03/26 05:28:47;;;;;;;2.03;1.77;;;2.20;97.30;;;;;;4938722;29;20210;-89
2024/03/26 05:31:20;;;;;;;1.40;1.30;;;2.30;97.30;;;;;;4939378;29;20195;-88
2024/03/26 05:33:47;;;;;;;2.13;1.83;;;2.30;97.30;;;;;;4938529;29;20175;-88
2024/03/26 05:36:13;;;;;;;1.67;1.57;;;2.30;97.30;;;;;;4938809;29;20434;-91
2024/03/26 05:38:40;;;;;;;1.43;1.33;;;2.30;97.30;;;;;;4937941;29;20431;-89
2024/03/26 05:41:06;;;;;;;2.40;2.00;;;2.30;97.30;;;;;;4942809;29;20455;-90
2024/03/26 05:43:31;;;;;;;1.33;1.23;;;2.30;97.30;;;;;;4942392;29;20481;-89
2024/03/26 05:45:57;;;;;;;5.67;2.80;;;2.30;97.30;;;;;;4941140;29;20581;-86
2024/03/26 05:48:23;;;;;;;2.73;2.53;;;2.40;97.30;;;;;;4942204;29;20227;-88
2024/03/26 05:50:50;;;;;;;1.43;1.37;;;2.40;97.30;;;;;;4944132;29;20461;-91
2024/03/26 05:53:17;;;;;;;1.20;1.10;;;2.40;97.30;;;;;;4942221;29;20215;-90
2024/03/26 05:55:49;;;;;;;1.10;1.00;;;2.40;97.30;;;;;;4943054;29;20435;-84
2024/03/26 05:58:15;;;;;;;1.57;1.47;;;2.40;97.30;;;;;;4950462;29;20602;-89
2024/03/26 06:00:41;;;;;;;1.27;1.17;;;2.50;97.30;;;;;;4943142;28;20532;-89
2024/03/26 06:03:06;;;;;;;1.57;1.47;;;2.50;97.30;;;;;;4943921;29;20183;-90
2024/03/26 06:05:32;;;;;;;2.83;2.63;;;2.60;97.30;;;;;;4946191;29;20179;-89
2024/03/26 06:07:58;;;;;;;2.00;1.20;;;2.60;97.30;;;;;;4948200;29;20187;-89
2024/03/26 06:10:23;;;;;;;3.77;2.00;;;2.60;97.30;;;;;;4948803;28;20187;-91
2024/03/26 06:12:49;;;;;;;8.87;1.77;;;2.70;97.30;;;;;;4947694;29;20175;-89
2024/03/26 06:15:14;;;;;;;1.30;1.20;;;2.70;97.30;;;;;;4946989;29;20827;-88
2024/03/26 06:17:40;;;;;;;1.00;0.90;;;2.70;97.30;;;;;;4947058;29;20186;-88
2024/03/26 06:20:12;;;;;;;1.47;1.37;;;2.70;97.30;;;;;;4945870;29;20194;-88
2024/03/26 06:22:38;;;;;;;1.93;1.83;;;2.80;97.30;;;;;;4940693;29;20201;-92
2024/03/26 06:25:04;;;;;;;1.33;1.23;;;2.90;97.30;;;;;;4945297;29;20466;-88
2024/03/26 06:27:32;;;;;;;1.00;0.90;;;2.90;97.30;;;;;;4944948;29;20264;-90
2024/03/26 06:30:15;;;;;;;1.77;1.67;;;3.00;97.30;;;;;;4944259;29;20446;-87
2024/03/26 06:32:43;;;;;;;6.37;1.70;;;3.10;97.30;;;;;;4944208;29;20443;-88
2024/03/26 06:35:11;;;;;;;3.90;2.20;;;3.20;97.30;;;;;;4962920;28;20492;-87
2024/03/26 06:37:43;;;;;;;1.50;1.40;;;3.30;97.30;;;;;;4946716;29;20510;-88
2024/03/26 06:40:17;;;;;;;2.10;1.60;;;3.40;97.30;;;;;;4945102;29;20435;-89
2024/03/26 06:42:43;;;;;;;3.60;2.27;;;3.50;97.30;;;;;;4946144;29;20500;-89
2024/03/26 06:45:13;;;;;;;1.57;1.47;;;3.60;97.30;;;;;;4947368;29;20427;-90
2024/03/26 06:47:42;;;;;;;1.53;1.47;;;3.70;97.30;;;;;;4954107;29;20210;-91
2024/03/26 06:50:15;;;;;;;1.70;1.57;;;3.70;97.30;;;;;;4955801;29;20415;-91
2024/03/26 06:52:40;;;;;;;1.33;1.23;;;3.90;97.30;;;;;;4960190;29;20443;-93
2024/03/26 06:55:21;;;;;;;3.03;1.97;;;4.00;97.30;;;;;;4959763;29;20426;-89
2024/03/26 06:57:54;;;;;;;1.40;1.30;;;4.10;97.30;;;;;;4946645;29;20195;-88
2024/03/26 07:00:22;;;;;;;1.40;1.30;;;4.20;97.30;;;;;;4942486;29;20431;-89
2024/03/26 07:02:57;;;;;;;1.80;1.70;;;4.30;97.30;;;;;;4937742;29;20483;-89
2024/03/26 07:05:23;;;;;;;1.47;1.40;;;4.40;97.30;;;;;;4938255;29;20428;-89
2024/03/26 07:07:51;;;;;;;1.30;1.20;;;4.60;97.30;;;;;;4939467;29;20763;-90
2024/03/26 07:10:24;;;;;;;1.33;1.23;;;4.70;97.30;;;;;;4937721;29;20446;-89
2024/03/26 07:12:52;;;;;;;2.53;2.00;;;4.80;97.30;;;;;;4938163;29;20443;-89
2024/03/26 07:15:20;;;;;;;1.27;1.17;;;4.90;97.30;;;;;;4937783;29;20483;-88
2024/03/26 07:17:45;;;;;;;1.33;1.00;;;5.00;97.30;;;;;;4936842;29;20434;-86
2024/03/26 07:20:11;;;;;;;2.30;1.63;;;5.10;97.30;;;;;;4938358;29;20423;-88
2024/03/26 07:22:39;;;;;;;1.60;1.50;;;5.20;97.30;;;;;;4932678;29;20235;-91
2024/03/26 07:25:05;;;;;;;2.50;1.67;;;5.30;97.30;;;;;;4937364;29;20191;-89
2024/03/26 07:27:31;;;;;;;2.80;2.70;;;5.40;97.30;;;;;;4939076;29;21009;-90
2024/03/26 07:29:57;;;;;;;3.03;2.50;;;5.50;97.30;;;;;;4937094;29;20431;-89
2024/03/26 07:32:23;;;;;;;2.70;1.27;;;5.60;97.30;;;;;;4937234;29;20200;-90
2024/03/26 07:34:49;;;;;;;4.67;1.90;;;5.80;97.30;;;;;;4937657;29;21100;-89
2024/03/26 07:37:15;;;;;;;2.20;1.40;;;5.90;97.30;;;;;;4935166;29;20193;-89
2024/03/26 07:39:40;;;;;;;5.60;2.40;;;6.00;97.30;;;;;;4937103;29;20271;-89
2024/03/26 07:42:06;;;;;;;9.93;1.97;;;6.00;97.30;;;;;;4937427;29;20499;-89
2024/03/26 07:44:32;;;;;;;1.77;1.67;;;6.10;97.30;;;;;;4936167;29;20366;-92
2024/03/26 07:46:58;;;;;;;2.07;1.60;;;6.20;97.30;;;;;;4937355;29;20199;-89
2024/03/26 07:49:24;;;;;;;1.40;1.30;;;6.30;97.30;;;;;;4937241;29;20299;-89
2024/03/26 07:51:51;;;;;;;1.40;1.40;;;6.50;97.30;;;;;;4937600;29;20447;-89
2024/03/26 07:54:19;;;;;;;2.30;2.10;;;6.70;97.30;;;;;;4936773;29;20183;-88
2024/03/26 07:56:45;;;;;;;2.40;1.37;;;6.70;97.30;;;;;;4934543;29;20427;-88
2024/03/26 07:59:10;;;;;;;2.70;2.07;;;6.70;97.30;;;;;;4944080;29;20436;-90
2024/03/26 08:01:36;;;;;;;1.67;1.57;;;6.80;97.30;;;;;;4936313;29;20302;-91
2024/03/26 08:04:01;;;;;;;1.30;1.20;;;6.80;97.30;;;;;;4935725;29;20204;-90
2024/03/26 08:06:27;;;;;;;3.00;2.80;;;7.00;97.30;;;;;;4937199;29;20223;-88
2024/03/26 08:08:53;;;;;;;3.90;1.77;;;7.10;97.30;;;;;;4938452;29;20233;-87
2024/03/26 08:11:19;;;;;;;5.07;2.23;;;7.20;97.30;;;;;;4935993;29;20200;-89
2024/03/26 08:13:45;;;;;;;3.80;2.50;;;7.50;97.30;;;;;;4936092;29;20482;-89
2024/03/26 08:16:10;;;;;;;2.43;2.00;;;7.80;97.30;;;;;;4933248;29;20661;-89
2024/03/26 08:18:36;;;;;;;2.60;1.57;;;8.00;97.30;;;;;;4935926;29;20196;-90
2024/03/26 08:21:02;;;;;;;2.00;1.90;;;8.00;97.30;;;;;;4934995;29;20275;-90
2024/03/26 08:23:28;;;;;;;1.80;1.70;;;8.00;97.30;;;;;;4934667;29;20195;-92
2024/03/26 08:25:54;;;;;;;2.50;2.30;;;8.00;97.30;;;;;;4935050;29;20477;-89
2024/03/26 08:28:20;;;;;;;10.13;2.70;;;8.10;97.30;;;;;;4935437;29;20180;-89
2024/03/26 08:30:47;;;;;;;1.53;1.43;;;8.10;97.30;;;;;;4935348;29;20440;-89
2024/03/26 08:33:13;;;;;;;2.80;1.80;;;8.20;97.30;;;;;;4935507;29;20431;-89
2024/03/26 08:35:39;;;;;;;2.90;2.20;;;8.40;97.30;;;;;;4935562;29;20828;-89
2024/03/26 08:38:05;;;;;;;3.80;2.40;;;8.60;97.30;;;;;;4935474;29;20227;-88
2024/03/26 08:40:31;;;;;;;1.80;1.70;;;8.70;97.30;;;;;;4935477;29;20483;-89
2024/03/26 08:42:57;;;;;;;3.60;2.00;;;8.80;97.30;;;;;;4935185;29;20192;-89
2024/03/26 08:45:23;;;;;;;0.90;0.90;;;8.90;96.80;;;;;;4935361;29;20610;-89
2024/03/26 08:47:48;;;;;;;4.60;3.30;;;8.90;96.20;;;;;;4936188;29;20227;-89
2024/03/26 08:50:14;;;;;;;1.40;1.30;;;9.00;96.30;;;;;;4936052;29;20420;-87
2024/03/26 08:52:39;;;;;;;6.10;2.20;;;9.00;96.30;;;;;;4935349;29;20247;-90
2024/03/26 08:55:05;;;;;;;2.20;1.43;;;9.10;96.20;;;;;;4935789;29;20192;-89
2024/03/26 08:57:30;;;;;;;2.23;2.03;;;9.20;95.80;;;;;;4935567;29;20188;-89
2024/03/26 09:00:01;;;;;;;1.93;1.83;;;9.20;94.70;;;;;;4935316;29;20234;-89
2024/03/26 09:02:29;;;;;;;1.67;1.60;;;9.30;94.00;;;;;;4933248;29;20278;-89
2024/03/26 09:04:55;;;;;;;2.40;2.20;;;9.30;94.30;;;;;;4935272;29;20490;-89
2024/03/26 09:07:21;;;;;;;1.13;1.03;;;9.40;93.90;;;;;;4935353;29;20554;-89
2024/03/26 09:09:46;;;;;;;2.50;1.90;;;9.40;93.60;;;;;;4934681;29;20434;-88
2024/03/26 09:12:12;;;;;;;3.53;1.47;;;9.50;93.40;;;;;;4937269;29;20685;-90
2024/03/26 09:14:46;;;;;;;4.10;2.70;;;9.60;93.30;;;;;;4936015;29;20188;-87
2024/03/26 09:17:12;;;;;;;1.80;1.70;;;9.80;93.60;;;;;;4933515;29;20187;-89
2024/03/26 09:19:38;;;;;;;1.93;1.83;;;10.00;93.20;;;;;;4935052;29;21062;-90
2024/03/26 09:22:04;;;;;;;2.43;2.23;;;10.00;92.70;;;;;;4935382;29;20207;-90
2024/03/26 09:24:29;;;;;;;1.67;1.57;;;10.10;92.40;;;;;;4934844;29;20415;-90
2024/03/26 09:26:55;;;;;;;2.20;1.50;;;10.20;92.80;;;;;;4936148;29;20271;-89
2024/03/26 09:29:23;;;;;;;3.33;1.90;;;10.30;92.40;;;;;;4938058;29;20205;-88
2024/03/26 09:31:49;;;;;;;2.67;1.40;;;10.40;91.10;;;;;;4930963;29;20196;-89
2024/03/26 09:34:14;;;;;;;1.13;1.03;;;10.50;92.40;;;;;;4935242;29;20977;-89
2024/03/26 09:36:43;;;;;;;4.73;1.40;;;10.60;91.90;;;;;;4936176;29;20423;-85
2024/03/26 09:39:09;;;;;;;2.63;1.87;;;10.60;91.10;;;;;;4936496;29;20267;-89
2024/03/26 09:41:37;;;;;;;1.83;1.73;;;10.60;91.30;;;;;;4938114;29;20518;-87
2024/03/26 09:44:03;;;;;;;3.50;2.00;;;10.70;92.10;;;;;;4939577;29;20274;-88
2024/03/26 09:46:30;;;;;;;2.67;1.70;;;10.80;91.80;;;;;;4938466;29;20835;-90
2024/03/26 09:48:58;;;;;;;1.63;1.60;;;11.00;91.40;;;;;;4938618;29;20467;-89
2024/03/26 09:51:26;;;;;;;2.10;1.90;;;11.10;91.40;;;;;;4938564;29;20479;-90
2024/03/26 09:53:53;;;;;;;4.13;2.13;;;11.20;91.90;;;;;;4939125;29;20427;-90
2024/03/26 09:56:19;;;;;;;2.97;2.00;;;11.40;91.70;;;;;;4941668;29;20427;-90
2024/03/26 09:58:45;;;;;;;3.83;2.00;;;11.50;91.50;;;;;;4938141;29;20427;-90
2024/03/26 10:01:12;;;;;;;7.40;3.60;;;11.50;91.00;;;;;;4937502;29;20479;-89
2024/03/26 10:03:37;;;;;;;1.80;1.70;;;11.70;91.50;;;;;;4938250;29;20278;-91
2024/03/26 10:06:04;;;;;;;2.80;2.10;;;11.80;90.70;;;;;;4938311;29;20486;-89
2024/03/26 10:08:30;;;;;;;5.40;1.37;;;11.90;90.90;;;;;;4938188;29;20684;-89
2024/03/26 10:10:55;;;;;;;1.70;1.60;;;11.90;90.60;;;;;;4937735;29;20542;-90
2024/03/26 10:13:22;;;;;;;1.97;1.87;;;11.90;89.90;;;;;;4937897;29;20573;-92
2024/03/26 10:15:48;;;;;;;3.57;1.53;;;12.00;90.80;;;;;;4937836;29;20191;-88
2024/03/26 10:18:14;;;;;;;2.90;2.50;;;12.10;90.90;;;;;;4939152;29;20424;-88
2024/03/26 10:20:40;;;;;;;2.33;2.03;;;12.10;90.10;;;;;;4939346;29;20459;-88
2024/03/26 10:23:08;;;;;;;4.13;3.93;;;12.20;90.10;;;;;;4939581;29;20431;-87
2024/03/26 10:25:34;;;;;;;3.13;1.67;;;12.40;90.50;;;;;;4938873;29;20183;-87
2024/03/26 10:28:01;;;;;;;2.57;2.37;;;12.60;90.70;;;;;;4938942;29;20972;-87
2024/03/26 10:30:30;;;;;;;3.50;2.07;;;12.70;89.70;;;;;;4938574;29;20479;-88
2024/03/26 10:32:57;;;;;;;1.20;1.10;;;12.90;89.80;;;;;;4945859;29;20474;-87
2024/03/26 10:35:24;;;;;;;2.70;2.23;;;12.80;88.70;;;;;;4943481;29;20802;-89
2024/03/26 10:37:55;;;;;;;2.90;1.87;;;12.90;88.50;;;;;;4939575;29;20447;-90
2024/03/26 10:40:39;;;;;;;6.67;2.60;;;12.90;89.10;;;;;;4938648;29;20523;-88
2024/03/26 10:43:04;;;;;;;3.97;3.03;;;13.00;88.70;;;;;;4936201;29;20450;-89
2024/03/26 10:45:30;;;;;;;2.20;2.00;;;13.10;90.10;;;;;;4938828;29;20915;-88
2024/03/26 10:47:56;;;;;;;2.33;2.10;;;13.20;88.80;;;;;;4938570;29;20172;-89
2024/03/26 10:50:24;;;;;;;2.80;1.93;;;13.30;88.60;;;;;;4937906;29;20420;-88
2024/03/26 10:52:51;;;;;;;2.20;1.33;;;13.50;88.90;;;;;;4937426;29;20236;-89
2024/03/26 10:55:17;;;;;;;2.60;2.17;;;13.60;88.60;;;;;;4939287;28;20435;-89
2024/03/26 10:57:44;;;;;;;2.30;2.10;;;13.50;86.50;;;;;;4938433;29;20514;-89
2024/03/26 11:00:15;;;;;;;2.30;1.70;;;13.30;87.20;;;;;;4922454;29;20456;-88
2024/03/26 11:03:13;;;;;;;1.50;1.40;;;13.50;87.60;;;;;;4937686;29;20479;-89
2024/03/26 11:05:44;;;;;;;2.70;2.17;;;13.50;87.80;;;;;;4937037;29;20850;-89
2024/03/26 11:08:53;;;;;;;4.77;1.70;;;13.50;86.50;;;;;;4937246;29;20519;-89
2024/03/26 11:11:41;;;;;;;3.53;2.57;;;13.70;87.80;;;;;;4891461;29;20527;-87
2024/03/26 11:14:33;;;;;;;2.40;2.20;;;13.80;87.40;;;;;;4937534;29;20431;-87
2024/03/26 11:26:44;;;;;;;2.53;2.37;;;14.50;85.10;;;;;;4812550;29;20461;-87
2024/03/26 11:29:15;;;;;;;2.17;2.03;;;14.60;84.70;;;;;;4817366;29;20437;-87
2024/03/26 11:31:45;;;;;;;1.90;1.20;;;14.50;83.60;;;;;;4889001;29;20462;-87
2024/03/26 11:34:14;;;;;;;4.27;2.17;;;14.40;84.80;;;;;;4937863;29;20420;-87
2024/03/26 11:36:55;;;;;;;1.77;1.70;;;14.40;84.80;;;;;;4937130;29;20432;-87
2024/03/26 11:39:45;;;;;;;2.40;2.23;;;14.10;84.50;;;;;;4939067;29;20439;-86
2024/03/26 11:42:14;;;;;;;2.13;2.03;;;14.00;85.90;;;;;;4932626;29;20466;-85
2024/03/26 11:44:45;;;;;;;2.30;1.73;;;14.20;85.90;;;;;;4938363;29;20842;-87
2024/03/26 11:47:15;;;;;;;2.47;1.80;;;14.20;86.00;;;;;;4939516;29;20530;-88
2024/03/26 11:49:43;;;;;;;3.00;2.37;;;14.40;85.40;;;;;;4969199;23;20498;-84
2024/03/26 11:52:24;;;;;;;2.40;1.80;;;14.60;85.50;;;;;;4963561;28;20470;-85
2024/03/26 11:54:56;;;;;;;4.93;2.83;;;14.70;84.60;;;;;;4952741;28;20793;-84
2024/03/26 11:57:22;;;;;;;1.67;1.53;;;15.00;84.20;;;;;;4955007;28;20497;-84
2024/03/26 11:59:53;;;;;;;5.33;3.13;;;15.00;82.70;;;;;;4956274;28;21007;-83
2024/03/26 12:02:34;;;;;;;5.73;2.57;;;15.10;82.70;;;;;;4955734;28;20457;-85
2024/03/26 12:05:03;;;;;;;3.23;1.70;;;15.30;83.20;;;;;;4955894;28;20469;-84
2024/03/26 12:07:51;;;;;;;1.77;1.67;;;15.50;81.90;;;;;;4944134;28;20475;-85
2024/03/26 12:10:22;;;;;;;3.43;1.53;;;15.40;81.50;;;;;;4951311;28;20534;-84
2024/03/26 12:12:55;;;;;;;1.17;1.07;;;15.30;82.10;;;;;;4956559;28;20419;-85
2024/03/26 12:15:23;;;;;;;4.63;1.93;;;15.50;82.40;;;;;;4961755;28;20449;-83
2024/03/26 12:17:51;;;;;;;1.93;1.87;;;15.70;82.20;;;;;;4955498;28;20510;-84
2024/03/26 12:20:16;;;;;;;1.37;1.27;;;15.90;81.60;;;;;;4955387;28;21023;-84
2024/03/26 12:22:42;;;;;;;2.80;2.60;;;15.80;80.90;;;;;;4950316;28;20431;-84
2024/03/26 12:25:08;;;;;;;2.13;1.90;;;15.70;81.20;;;;;;4959912;28;20691;-84
2024/03/26 12:27:34;;;;;;;1.20;1.10;;;15.70;82.10;;;;;;4951880;28;20215;-84
2024/03/26 12:30:00;;;;;;;1.27;1.10;;;15.70;81.60;;;;;;4952003;28;20545;-84
2024/03/26 12:32:27;;;;;;;1.43;1.10;;;15.80;81.40;;;;;;4947525;28;20498;-84
2024/03/26 12:34:52;;;;;;;5.70;1.53;;;15.90;82.00;;;;;;4955111;28;20422;-84
2024/03/26 12:37:17;;;;;;;1.33;1.23;;;16.10;81.20;;;;;;4947537;28;20974;-83
2024/03/26 12:39:43;;;;;;;11.73;3.53;;;16.30;81.10;;;;;;4951500;28;20213;-84
2024/03/26 12:42:08;;;;;;;2.63;2.30;;;16.50;81.40;;;;;;4957562;28;20222;-84
2024/03/26 12:44:34;;;;;;;3.50;1.40;;;16.80;81.40;;;;;;4951321;28;20210;-84
2024/03/26 12:47:00;;;;;;;3.10;2.90;;;17.10;79.70;;;;;;4956931;28;20674;-84
2024/03/26 12:49:25;;;;;;;3.20;2.10;;;17.20;78.60;;;;;;4955337;28;20230;-84
2024/03/26 12:51:56;;;;;;;1.50;1.40;;;17.40;79.50;;;;;;4971892;28;20653;-84
2024/03/26 12:54:23;;;;;;;2.40;1.80;;;17.50;78.60;;;;;;4954266;28;20198;-84
2024/03/26 12:56:49;;;;;;;8.00;2.07;;;17.70;79.40;;;;;;4954323;28;20436;-84
2024/03/26 12:59:15;;;;;;;2.80;2.00;;;17.80;76.40;;;;;;4958563;28;20991;-84
2024/03/26 13:01:40;;;;;;;1.60;1.50;;;17.60;78.00;;;;;;4966634;28;20427;-84
2024/03/26 13:04:06;;;;;;;1.30;1.20;;;17.80;77.90;;;;;;4949406;28;20186;-84
2024/03/26 13:06:32;;;;;;;1.67;1.40;;;17.80;77.20;;;;;;4954071;28;20210;-84
2024/03/26 13:08:57;;;;;;;3.23;2.07;;;17.80;77.00;;;;;;4962041;28;20198;-84
2024/03/26 13:11:23;;;;;;;2.13;1.50;;;17.60;75.80;;;;;;4953849;28;20253;-84
2024/03/26 13:13:51;;;;;;;2.33;2.00;;;17.50;77.60;;;;;;4952718;28;20189;-84
2024/03/26 13:16:17;;;;;;;5.13;3.07;;;17.40;77.10;;;;;;4953191;28;20191;-84
2024/03/26 13:18:42;;;;;;;2.23;1.43;;;17.20;76.50;;;;;;4953787;28;20952;-84
2024/03/26 13:21:10;;;;;;;4.87;2.70;;;16.90;76.50;;;;;;4971317;28;20253;-84
2024/03/26 13:23:36;;;;;;;2.47;2.00;;;16.70;77.70;;;;;;4954360;28;20645;-85
2024/03/26 13:26:01;;;;;;;1.57;1.57;;;16.40;77.70;;;;;;4957064;28;20477;-84
2024/03/26 13:28:27;;;;;;;1.57;1.57;;;16.50;77.50;;;;;;4972127;28;20429;-84
2024/03/26 13:30:54;;;;;;;2.60;1.70;;;17.00;78.30;;;;;;4959495;28;20372;-84
2024/03/26 13:33:19;;;;;;;2.47;2.10;;;17.50;77.30;;;;;;4971157;28;20411;-84
2024/03/26 13:35:45;;;;;;;3.30;1.80;;;18.00;77.10;;;;;;4958686;28;20872;-84
2024/03/26 13:38:11;;;;;;;4.80;2.10;;;18.10;75.40;;;;;;4953297;28;20186;-84
2024/03/26 13:40:37;;;;;;;4.00;1.57;;;18.00;75.20;;;;;;4954062;28;20476;-84
2024/03/26 13:43:04;;;;;;;3.07;2.20;;;18.30;75.80;;;;;;4956908;28;20181;-84
2024/03/26 13:45:30;;;;;;;1.47;1.10;;;18.40;75.60;;;;;;4958130;28;20190;-83
2024/03/26 13:47:56;;;;;;;2.70;2.20;;;18.10;74.90;;;;;;4945755;28;20478;-84
2024/03/26 13:50:21;;;;;;;1.70;1.60;;;17.90;74.70;;;;;;4956033;28;20474;-84
2024/03/26 13:52:47;;;;;;;2.40;1.33;;;17.70;74.40;;;;;;4955112;28;20334;-84
2024/03/26 13:55:12;;;;;;;1.60;1.50;;;17.50;75.10;;;;;;4972359;28;20653;-84
2024/03/26 13:57:38;;;;;;;1.70;1.60;;;17.40;75.10;;;;;;4954261;28;20191;-84
2024/03/26 14:00:07;;;;;;;2.60;1.70;;;17.00;75.50;;;;;;4955383;28;20230;-84
2024/03/26 14:02:33;;;;;;;1.53;1.43;;;16.50;77.00;;;;;;4941799;28;20206;-84
2024/03/26 14:04:58;;;;;;;3.30;3.20;;;16.30;76.80;;;;;;4947149;28;20439;-84
2024/03/26 14:07:24;;;;;;;4.90;1.83;;;16.20;78.00;;;;;;4971145;28;20668;-84
2024/03/26 14:09:49;;;;;;;3.37;2.10;;;16.10;79.40;;;;;;4982972;28;20204;-85
2024/03/26 14:12:15;;;;;;;4.27;2.20;;;16.10;79.00;;;;;;4973787;28;20410;-85
2024/03/26 14:14:41;;;;;;;3.90;2.50;;;15.90;78.20;;;;;;4971522;28;20194;-84
2024/03/26 14:17:06;;;;;;;4.80;2.40;;;15.70;78.30;;;;;;4974224;28;20194;-84
2024/03/26 14:19:32;;;;;;;9.90;1.90;;;15.60;78.20;;;;;;4967476;28;20450;-84
2024/03/26 14:21:58;;;;;;;4.33;2.00;;;15.60;79.40;;;;;;4960299;28;20182;-84
2024/03/26 14:24:23;;;;;;;4.67;2.50;;;15.40;78.50;;;;;;4983788;28;20190;-84
2024/03/26 14:26:49;;;;;;;1.33;1.30;;;15.20;79.10;;;;;;4967193;28;20276;-84
2024/03/26 14:29:15;;;;;;;2.57;1.47;;;15.30;79.80;;;;;;4967510;28;20442;-84
2024/03/26 14:31:41;;;;;;;2.10;1.47;;;15.20;80.20;;;;;;4962359;28;20178;-84
2024/03/26 14:34:06;;;;;;;3.70;2.87;;;15.00;79.50;;;;;;4958323;28;20470;-83
2024/03/26 14:36:32;;;;;;;6.90;3.30;;;14.80;80.50;;;;;;4955846;28;20182;-84
2024/03/26 14:38:57;;;;;;;2.63;1.90;;;14.80;81.40;;;;;;4947361;28;20254;-84
2024/03/26 14:41:23;;;;;;;7.60;2.97;;;14.60;81.30;;;;;;4969460;28;20190;-84
2024/03/26 14:43:49;;;;;;;1.57;1.43;;;14.50;81.30;;;;;;4952634;28;20689;-84
2024/03/26 14:46:14;;;;;;;2.10;1.60;;;14.50;81.40;;;;;;4956840;28;20659;-84
2024/03/26 14:48:40;;;;;;;2.13;1.90;;;14.40;81.30;;;;;;4966105;28;20273;-84
2024/03/26 14:51:06;;;;;;;2.60;2.10;;;14.20;81.20;;;;;;4969959;28;20171;-82
2024/03/26 14:53:32;;;;;;;1.80;1.53;;;14.20;81.60;;;;;;4970024;28;20776;-83
2024/03/26 14:55:57;;;;;;;1.37;1.20;;;14.20;81.50;;;;;;4974789;28;20183;-83
2024/03/26 14:58:23;;;;;;;4.80;2.20;;;14.20;81.50;;;;;;4958947;28;20220;-82
2024/03/26 15:00:49;;;;;;;3.63;2.10;;;14.20;82.30;;;;;;4950661;28;20218;-84
2024/03/26 15:03:15;;;;;;;3.53;2.27;;;14.20;82.40;;;;;;4956005;28;20274;-84
2024/03/26 15:05:42;;;;;;;4.63;2.40;;;14.20;81.90;;;;;;4953694;28;20433;-84
2024/03/26 15:08:08;;;;;;;2.60;1.63;;;14.20;82.50;;;;;;4979131;28;20410;-84
2024/03/26 15:10:34;;;;;;;3.57;2.40;;;14.20;82.00;;;;;;4963752;28;20528;-84
2024/03/26 15:13:00;;;;;;;1.63;1.60;;;14.20;80.40;;;;;;4954259;28;20944;-84
2024/03/26 15:15:26;;;;;;;2.23;2.03;;;14.10;80.50;;;;;;4958309;28;20422;-84
2024/03/26 15:17:52;;;;;;;1.77;1.67;;;14.20;80.00;;;;;;4961853;28;20473;-85
2024/03/26 15:20:18;;;;;;;8.27;1.63;;;14.20;79.50;;;;;;4944421;28;20699;-84
2024/03/26 15:22:44;;;;;;;3.33;2.20;;;14.20;78.80;;;;;;4955238;28;20187;-84
2024/03/26 15:25:09;;;;;;;3.10;2.40;;;14.20;78.30;;;;;;4956668;28;20426;-84
2024/03/26 15:32:45;;;;;;;2.93;2.73;;;14.10;79.20;;;;;;4960467;28;20477;-84
2024/03/26 15:35:11;;;;;;;9.97;3.57;;;14.00;78.90;;;;;;4956897;28;20509;-85
2024/03/26 15:37:36;;;;;;;6.10;2.33;;;14.00;79.90;;;;;;4942480;28;20223;-84
2024/03/26 15:40:02;;;;;;;2.30;1.77;;;14.00;79.90;;;;;;4981335;28;20211;-84
2024/03/26 15:42:28;;;;;;;2.73;2.53;;;14.00;80.40;;;;;;4962516;28;20233;-84
2024/03/26 15:44:53;;;;;;;1.57;1.47;;;14.20;80.00;;;;;;4954154;28;20433;-85
2024/03/26 15:47:19;;;;;;;68.13;2.53;;;14.60;79.50;;;;;;4945066;28;20198;-84
2024/03/26 15:49:45;;;;;;;1.87;1.70;;;14.80;79.40;;;;;;4956883;28;20226;-85
2024/03/26 15:52:12;;;;;;;1.67;1.57;;;15.00;79.50;;;;;;4944385;28;20636;-84
2024/03/26 15:54:37;;;;;;;3.87;2.67;;;15.20;79.70;;;;;;4941695;28;20876;-84
2024/03/26 15:57:03;;;;;;;4.00;2.60;;;15.30;78.60;;;;;;4949417;28;20419;-85
2024/03/26 15:59:28;;;;;;;3.60;2.50;;;15.20;79.40;;;;;;4954733;28;20340;-84
2024/03/26 16:01:54;;;;;;;3.20;3.00;;;15.00;79.00;;;;;;4959054;28;20187;-84
2024/03/26 16:04:19;;;;;;;1.87;1.70;;;14.70;79.00;;;;;;4969522;28;20704;-84
2024/03/26 16:06:45;;;;;;;2.93;2.73;;;14.30;79.10;;;;;;4944775;28;20211;-84
2024/03/26 16:09:11;;;;;;;3.20;3.03;;;14.00;80.10;;;;;;4957696;28;20241;-84
2024/03/26 16:11:36;;;;;;;2.00;1.90;;;13.80;81.10;;;;;;4950998;28;20469;-84
2024/03/26 16:14:03;;;;;;;3.20;2.27;;;13.70;81.20;;;;;;4973850;28;20652;-84
2024/03/26 16:16:29;;;;;;;1.80;1.80;;;13.60;81.70;;;;;;4960053;28;20179;-84
2024/03/26 16:18:54;;;;;;;4.10;1.63;;;13.50;82.30;;;;;;4955688;28;20445;-84
2024/03/26 16:21:21;;;;;;;4.07;2.90;;;13.40;82.90;;;;;;4969506;28;20207;-84
2024/03/26 16:23:46;;;;;;;3.57;2.67;;;13.40;83.00;;;;;;4968981;28;20218;-83
2024/03/26 16:26:13;;;;;;;3.47;2.10;;;13.40;82.90;;;;;;4948911;28;20554;-84
2024/03/26 16:28:39;;;;;;;2.60;2.50;;;13.40;83.10;;;;;;4961859;28;20732;-84
2024/03/26 16:31:06;;;;;;;4.50;2.50;;;13.50;83.40;;;;;;4950754;28;20812;-84
2024/03/26 16:33:33;;;;;;;5.47;2.90;;;13.60;83.50;;;;;;4948222;28;20458;-82
2024/03/26 16:36:10;;;;;;;14.50;2.37;;;13.50;82.70;;;;;;4956076;28;20422;-83
2024/03/26 16:38:37;;;;;;;3.47;2.20;;;13.40;83.10;;;;;;4949166;28;20417;-84
2024/03/26 16:41:03;;;;;;;4.57;3.70;;;13.40;83.20;;;;;;4966991;28;20488;-83
2024/03/26 16:43:29;;;;;;;4.00;2.33;;;13.30;84.20;;;;;;4953495;28;20501;-84
2024/03/26 16:45:54;;;;;;;1.50;1.20;;;13.30;84.10;;;;;;4939135;28;20190;-84
2024/03/26 16:48:20;;;;;;;2.23;2.00;;;13.40;84.40;;;;;;4960225;28;20171;-84
2024/03/26 16:50:46;;;;;;;2.87;1.93;;;14.00;83.50;;;;;;4958300;28;20271;-84
2024/03/26 16:53:12;;;;;;;2.10;1.70;;;14.40;82.30;;;;;;4962351;28;20702;-84
2024/03/26 16:55:40;;;;;;;3.03;2.70;;;14.80;81.80;;;;;;4939321;28;21102;-84
2024/03/26 16:58:06;;;;;;;2.70;1.53;;;15.00;81.30;;;;;;4949676;28;21015;-84
2024/03/26 17:00:32;;;;;;;3.17;2.97;;;15.00;80.80;;;;;;4953242;28;20445;-84
2024/03/26 17:02:57;;;;;;;7.70;3.90;;;15.00;80.70;;;;;;4939551;28;20544;-83
2024/03/26 17:05:23;;;;;;;4.30;2.00;;;14.80;80.80;;;;;;4942449;28;20590;-83
2024/03/26 17:07:48;;;;;;;2.90;2.27;;;14.60;81.30;;;;;;4948971;28;20232;-84
2024/03/26 17:10:14;;;;;;;10.73;2.30;;;14.20;82.00;;;;;;4965978;28;20559;-85
2024/03/26 17:12:40;;;;;;;2.67;2.27;;;13.80;82.90;;;;;;4978673;28;20197;-84
2024/03/26 17:15:10;;;;;;;3.10;1.70;;;13.40;83.80;;;;;;4962467;28;20270;-85
2024/03/26 17:17:38;;;;;;;4.40;1.83;;;13.10;84.70;;;;;;4981815;28;20233;-85
2024/03/26 17:20:09;;;;;;;2.93;2.30;;;12.80;85.40;;;;;;4969378;28;20484;-83
2024/03/26 17:22:37;;;;;;;8.27;2.60;;;12.60;85.90;;;;;;4955350;28;20430;-84
2024/03/26 17:25:03;;;;;;;8.73;2.90;;;12.50;86.40;;;;;;4956390;28;20434;-85
2024/03/26 17:27:29;;;;;;;4.60;2.33;;;12.30;87.10;;;;;;4958931;28;20508;-85
2024/03/26 17:29:54;;;;;;;4.43;4.13;;;12.10;87.40;;;;;;4965535;28;20441;-82
2024/03/26 17:32:20;;;;;;;3.67;2.20;;;12.00;87.70;;;;;;4961085;28;20198;-84
2024/03/26 17:34:46;;;;;;;2.40;2.20;;;11.90;88.00;;;;;;4971092;28;20175;-85
2024/03/26 17:37:11;;;;;;;4.00;2.27;;;11.70;88.30;;;;;;4953442;28;20183;-85
2024/03/26 17:39:37;;;;;;;1.70;1.60;;;11.60;88.50;;;;;;4971110;28;20272;-85
2024/03/26 17:42:03;;;;;;;4.70;2.53;;;11.50;89.00;;;;;;4953354;28;20189;-83
2024/03/26 17:44:29;;;;;;;1.43;1.33;;;11.40;89.20;;;;;;4953538;28;20437;-85
2024/03/26 17:46:55;;;;;;;2.17;2.00;;;11.30;89.40;;;;;;4953353;28;20206;-85
2024/03/26 17:49:21;;;;;;;6.63;3.07;;;11.30;89.50;;;;;;4956574;28;20457;-84
2024/03/26 17:51:46;;;;;;;6.30;2.80;;;11.20;89.80;;;;;;4966221;28;20426;-85
2024/03/26 17:54:12;;;;;;;3.07;2.00;;;11.20;90.10;;;;;;4955776;28;20171;-84
2024/03/26 17:56:37;;;;;;;3.47;2.03;;;11.10;90.30;;;;;;4958905;28;20202;-84
2024/03/26 17:59:04;;;;;;;2.17;2.00;;;11.10;90.30;;;;;;4959975;28;20216;-85
2024/03/26 18:01:29;;;;;;;2.00;1.70;;;11.00;90.60;;;;;;4961281;28;20186;-84
2024/03/26 18:03:55;;;;;;;3.77;2.00;;;10.90;90.70;;;;;;4981857;28;20455;-85
2024/03/26 18:06:21;;;;;;;3.40;1.93;;;10.80;91.10;;;;;;4972948;28;20706;-85